Time;durP1;ratioP1;P1;durP2;ratioP2;P2;SDS_P1;SDS_P2;PMS_P1;PMS_P2;Temp;Humidity;BMP_temperature;BMP_pressure;BME280_temperature;BME280_humidity;BME280_pressure;Samples;Min_cycle;Max_cycle;Signal;HPM_P1;HPM_P2
2024/03/23 00:02:14;;;;;;;31.48;9.48;;;9.50;99.90;;;;;;5087420;28;20034;-68
2024/03/23 00:04:41;;;;;;;23.05;10.00;;;9.50;99.90;;;;;;5087256;28;20024;-68
2024/03/23 00:07:07;;;;;;;25.05;9.90;;;9.50;99.90;;;;;;5081405;28;20016;-68
2024/03/23 00:09:34;;;;;;;27.88;10.38;;;9.50;99.90;;;;;;5081131;28;20516;-68
2024/03/23 00:12:01;;;;;;;30.45;10.70;;;9.60;99.90;;;;;;5085122;28;20020;-68
2024/03/23 00:14:28;;;;;;;29.00;11.10;;;9.50;99.90;;;;;;5079244;28;20115;-68
2024/03/23 00:16:55;;;;;;;26.45;11.75;;;9.50;99.90;;;;;;5086788;28;20174;-68
2024/03/23 00:19:21;;;;;;;25.98;11.65;;;9.50;99.90;;;;;;5082544;28;20051;-68
2024/03/23 00:21:48;;;;;;;28.40;10.63;;;9.50;99.90;;;;;;5086939;28;20028;-68
2024/03/23 00:24:14;;;;;;;30.42;10.65;;;9.60;99.90;;;;;;5086750;28;20043;-68
2024/03/23 00:26:41;;;;;;;24.10;10.32;;;9.50;99.90;;;;;;5087010;28;20020;-68
2024/03/23 00:29:07;;;;;;;27.55;9.70;;;9.50;99.90;;;;;;5054199;28;20063;-68
2024/03/23 00:31:34;;;;;;;30.23;10.65;;;9.50;99.90;;;;;;5078063;28;20431;-68
2024/03/23 00:34:00;;;;;;;21.35;9.50;;;9.40;99.90;;;;;;5081739;28;20039;-68
2024/03/23 00:36:27;;;;;;;36.25;10.45;;;9.40;99.90;;;;;;5086837;28;20032;-68
2024/03/23 00:38:53;;;;;;;27.85;9.50;;;9.40;99.90;;;;;;5067014;28;20055;-68
2024/03/23 00:41:20;;;;;;;24.40;9.52;;;9.40;99.90;;;;;;5090421;28;20035;-68
2024/03/23 00:43:46;;;;;;;35.72;10.18;;;9.40;99.90;;;;;;5090832;28;20028;-68
2024/03/23 00:46:13;;;;;;;24.45;9.48;;;9.30;99.90;;;;;;5091891;28;20028;-68
2024/03/23 00:48:39;;;;;;;23.23;9.25;;;9.40;99.90;;;;;;5091059;28;20050;-68
2024/03/23 00:51:06;;;;;;;24.02;9.13;;;9.30;99.90;;;;;;5085823;28;20031;-68
2024/03/23 00:53:33;;;;;;;24.65;9.05;;;9.30;99.90;;;;;;5082782;28;20059;-68
2024/03/23 00:55:59;;;;;;;25.95;10.80;;;9.30;99.90;;;;;;5061575;28;20533;-68
2024/03/23 00:58:25;;;;;;;24.58;9.45;;;9.20;99.90;;;;;;5085038;28;20107;-68
2024/03/23 01:00:50;;;;;;;32.63;10.68;;;9.30;99.90;;;;;;5084136;28;20392;-68
2024/03/23 01:03:16;;;;;;;23.90;8.75;;;9.30;99.90;;;;;;5077518;28;20054;-68
2024/03/23 01:05:41;;;;;;;32.78;9.35;;;9.30;99.90;;;;;;5089416;28;20064;-68
2024/03/23 01:08:07;;;;;;;34.83;9.55;;;9.30;99.90;;;;;;5089269;28;20036;-68
2024/03/23 01:10:32;;;;;;;20.48;8.95;;;9.30;99.90;;;;;;5069986;28;20055;-68
2024/03/23 01:12:58;;;;;;;34.22;10.43;;;9.30;99.90;;;;;;5090682;28;20024;-68
2024/03/23 01:15:24;;;;;;;31.05;9.70;;;9.20;99.90;;;;;;5081917;28;20082;-68
2024/03/23 01:17:49;;;;;;;33.50;9.02;;;9.20;99.90;;;;;;5089454;28;20038;-68
2024/03/23 01:20:15;;;;;;;27.88;8.18;;;9.20;99.90;;;;;;5090241;28;20036;-67
2024/03/23 01:22:41;;;;;;;20.73;7.40;;;9.10;99.90;;;;;;5077973;28;20103;-68
2024/03/23 01:25:07;;;;;;;20.73;7.40;;;9.10;99.90;;;;;;5090666;28;20492;-68
2024/03/23 01:27:34;;;;;;;27.25;7.57;;;9.00;99.90;;;;;;5090573;28;20016;-68
2024/03/23 01:29:59;;;;;;;16.65;6.10;;;9.00;99.90;;;;;;5087260;28;20033;-69
2024/03/23 01:32:25;;;;;;;21.55;6.40;;;9.10;99.90;;;;;;5089855;28;20043;-68
2024/03/23 01:34:51;;;;;;;17.33;5.88;;;9.00;99.90;;;;;;5089865;28;20024;-68
2024/03/23 01:37:16;;;;;;;22.48;5.90;;;9.00;99.90;;;;;;5087105;28;20024;-68
2024/03/23 01:39:42;;;;;;;22.27;5.15;;;9.00;99.90;;;;;;5089346;28;20055;-67
2024/03/23 01:42:08;;;;;;;17.20;5.30;;;8.90;99.90;;;;;;5058737;28;20028;-68
2024/03/23 01:44:33;;;;;;;13.32;5.38;;;8.90;99.90;;;;;;5083164;28;20118;-68
2024/03/23 01:46:59;;;;;;;14.18;5.05;;;8.90;99.90;;;;;;5087706;28;20115;-68
2024/03/23 01:49:24;;;;;;;23.33;5.38;;;8.80;99.90;;;;;;5090135;28;20024;-67
2024/03/23 01:51:50;;;;;;;17.85;4.90;;;8.80;99.90;;;;;;5095874;28;20055;-68
2024/03/23 01:54:16;;;;;;;21.95;4.93;;;8.90;99.90;;;;;;5083457;28;20028;-68
2024/03/23 01:56:42;;;;;;;17.35;4.80;;;8.80;99.90;;;;;;5073757;28;20062;-68
2024/03/23 01:59:07;;;;;;;18.52;5.00;;;8.80;99.90;;;;;;5062287;28;20036;-68
2024/03/23 02:01:35;;;;;;;15.32;4.72;;;8.80;99.90;;;;;;5083512;28;20700;-68
2024/03/23 02:04:01;;;;;;;18.77;4.78;;;8.80;99.90;;;;;;5079506;28;20396;-68
2024/03/23 02:06:27;;;;;;;15.95;5.25;;;8.80;99.90;;;;;;5083367;28;20024;-68
2024/03/23 02:08:54;;;;;;;18.23;4.63;;;8.80;99.90;;;;;;5073335;28;20085;-68
2024/03/23 02:11:20;;;;;;;13.88;4.90;;;8.70;99.90;;;;;;5069387;28;20039;-68
2024/03/23 02:13:45;;;;;;;13.77;3.92;;;8.70;99.90;;;;;;5081243;28;20023;-68
2024/03/23 02:16:11;;;;;;;13.30;3.88;;;8.70;99.90;;;;;;5081781;28;20081;-68
2024/03/23 02:18:36;;;;;;;18.75;4.72;;;8.70;99.90;;;;;;5088887;28;20127;-68
2024/03/23 02:21:03;;;;;;;16.02;4.55;;;8.70;99.90;;;;;;5082418;28;20034;-68
2024/03/23 02:23:29;;;;;;;14.15;4.13;;;8.70;99.90;;;;;;5071045;28;20030;-68
2024/03/23 02:25:54;;;;;;;20.48;5.28;;;8.60;99.90;;;;;;5082172;28;20032;-68
2024/03/23 02:28:22;;;;;;;24.27;4.60;;;8.60;99.90;;;;;;5083973;28;20115;-67
2024/03/23 02:30:50;;;;;;;16.20;4.63;;;8.60;99.90;;;;;;5089054;28;20073;-68
2024/03/23 02:33:16;;;;;;;16.70;4.40;;;8.60;99.90;;;;;;5087031;28;20055;-68
2024/03/23 02:35:43;;;;;;;15.43;5.00;;;8.60;99.90;;;;;;5078503;28;20448;-68
2024/03/23 02:38:09;;;;;;;21.00;5.35;;;8.60;99.90;;;;;;5087896;28;20123;-68
2024/03/23 02:40:34;;;;;;;19.50;5.20;;;8.60;99.90;;;;;;5082006;28;20102;-69
2024/03/23 02:43:00;;;;;;;23.38;5.15;;;8.60;99.90;;;;;;5088970;28;20043;-68
2024/03/23 02:45:26;;;;;;;17.23;5.40;;;8.60;99.90;;;;;;5076305;28;20047;-68
2024/03/23 02:47:52;;;;;;;14.15;4.72;;;8.60;99.90;;;;;;5080454;28;20028;-69
2024/03/23 02:50:20;;;;;;;18.95;5.53;;;8.60;99.90;;;;;;5082790;28;20082;-68
2024/03/23 02:52:46;;;;;;;22.13;5.22;;;8.50;99.90;;;;;;5070169;28;20287;-68
2024/03/23 02:55:12;;;;;;;20.88;5.30;;;8.60;99.90;;;;;;5071848;28;20599;-68
2024/03/23 02:57:37;;;;;;;22.20;5.30;;;8.50;99.90;;;;;;5088416;28;20232;-68
2024/03/23 03:00:04;;;;;;;20.23;5.30;;;8.50;99.90;;;;;;5088525;28;20538;-68
2024/03/23 03:02:30;;;;;;;34.83;5.70;;;8.60;99.90;;;;;;5072769;28;20016;-68
2024/03/23 03:04:56;;;;;;;16.42;5.28;;;8.50;99.90;;;;;;5087812;28;20092;-68
2024/03/23 03:07:21;;;;;;;21.48;5.90;;;8.50;99.90;;;;;;5084656;28;20025;-68
2024/03/23 03:09:47;;;;;;;23.45;5.00;;;8.50;99.90;;;;;;5070279;28;20040;-68
2024/03/23 03:12:12;;;;;;;24.83;5.60;;;8.50;99.90;;;;;;5084749;28;20028;-68
2024/03/23 03:14:38;;;;;;;24.00;5.78;;;8.50;99.90;;;;;;5088225;28;20032;-67
2024/03/23 03:17:04;;;;;;;15.63;4.65;;;8.50;99.90;;;;;;5073406;28;20035;-69
2024/03/23 03:19:30;;;;;;;16.17;4.85;;;8.40;99.90;;;;;;5088666;28;20019;-68
2024/03/23 03:21:55;;;;;;;11.13;4.10;;;8.40;99.90;;;;;;5087463;28;20147;-68
2024/03/23 03:24:21;;;;;;;15.70;5.10;;;8.40;99.90;;;;;;5072210;28;20074;-68
2024/03/23 03:26:47;;;;;;;22.85;5.45;;;8.40;99.90;;;;;;5081588;28;20035;-68
2024/03/23 03:29:12;;;;;;;24.67;4.97;;;8.40;99.90;;;;;;5084971;28;20027;-68
2024/03/23 03:31:39;;;;;;;17.77;5.25;;;8.40;99.90;;;;;;5083352;28;20095;-68
2024/03/23 03:34:05;;;;;;;21.23;5.57;;;8.40;99.90;;;;;;5056877;28;20439;-68
2024/03/23 03:36:30;;;;;;;19.23;4.72;;;8.40;99.90;;;;;;5078269;28;20039;-68
2024/03/23 03:38:56;;;;;;;18.40;4.88;;;8.40;99.90;;;;;;5092995;28;20040;-67
2024/03/23 03:41:21;;;;;;;19.23;5.30;;;8.40;99.90;;;;;;5087871;28;20133;-68
2024/03/23 03:43:47;;;;;;;23.52;5.22;;;8.40;99.90;;;;;;5081504;28;20028;-67
2024/03/23 03:46:13;;;;;;;26.52;5.22;;;8.40;99.90;;;;;;5081458;28;20051;-68
2024/03/23 03:48:38;;;;;;;16.88;4.90;;;8.40;99.90;;;;;;5072125;28;20020;-68
2024/03/23 03:51:04;;;;;;;25.02;5.55;;;8.40;99.90;;;;;;5068066;28;20562;-68
2024/03/23 03:53:30;;;;;;;18.70;4.53;;;8.40;99.90;;;;;;5076059;28;20060;-68
2024/03/23 03:55:56;;;;;;;15.18;5.78;;;8.40;99.90;;;;;;5087144;28;20588;-68
2024/03/23 03:58:22;;;;;;;18.33;4.45;;;8.40;99.90;;;;;;5087685;28;20504;-68
2024/03/23 04:00:48;;;;;;;15.52;4.72;;;8.40;99.90;;;;;;5083571;28;20039;-68
2024/03/23 04:03:13;;;;;;;21.35;4.18;;;8.30;99.90;;;;;;5081097;28;20132;-68
2024/03/23 04:05:39;;;;;;;28.05;6.65;;;8.40;99.90;;;;;;5081484;28;20100;-67
2024/03/23 04:08:05;;;;;;;21.17;5.43;;;8.40;99.90;;;;;;5086828;28;20035;-68
2024/03/23 04:10:31;;;;;;;21.75;5.25;;;8.40;99.90;;;;;;5087111;28;20107;-68
2024/03/23 04:12:57;;;;;;;14.38;4.72;;;8.40;99.90;;;;;;5085936;28;20185;-69
2024/03/23 04:15:22;;;;;;;16.20;4.70;;;8.30;99.90;;;;;;5086609;28;20031;-68
2024/03/23 04:17:48;;;;;;;15.95;5.13;;;8.40;99.90;;;;;;5080545;28;20024;-68
2024/03/23 04:20:16;;;;;;;10.27;4.05;;;8.40;99.90;;;;;;5078933;28;20028;-68
2024/03/23 04:22:42;;;;;;;18.38;4.43;;;8.30;99.90;;;;;;5086709;28;20050;-68
2024/03/23 04:25:08;;;;;;;12.43;3.25;;;8.30;99.90;;;;;;5083965;28;20056;-68
2024/03/23 04:27:34;;;;;;;14.82;3.42;;;8.20;99.90;;;;;;5071420;28;20683;-68
2024/03/23 04:30:01;;;;;;;10.80;3.38;;;8.10;99.90;;;;;;5057375;28;20024;-68
2024/03/23 04:32:27;;;;;;;12.63;2.20;;;8.10;99.90;;;;;;5070952;28;20028;-68
2024/03/23 04:34:54;;;;;;;11.98;2.42;;;8.10;99.90;;;;;;5076759;28;20245;-68
2024/03/23 04:37:20;;;;;;;18.55;3.00;;;8.00;99.90;;;;;;5055189;28;20044;-68
2024/03/23 04:39:46;;;;;;;16.45;2.95;;;8.00;99.90;;;;;;5083088;28;20044;-68
2024/03/23 04:42:11;;;;;;;14.35;3.20;;;8.00;99.90;;;;;;5079892;28;20047;-68
2024/03/23 04:44:37;;;;;;;11.43;2.70;;;8.00;99.90;;;;;;5077992;28;20040;-68
2024/03/23 04:47:03;;;;;;;14.50;3.38;;;8.00;99.90;;;;;;5082590;28;20560;-68
2024/03/23 04:49:29;;;;;;;17.02;3.75;;;8.00;99.90;;;;;;5083288;28;20051;-68
2024/03/23 04:51:54;;;;;;;15.98;2.85;;;8.00;99.90;;;;;;5086094;28;20127;-68
2024/03/23 04:54:20;;;;;;;16.50;3.88;;;8.00;99.90;;;;;;5070823;28;20066;-67
2024/03/23 04:56:46;;;;;;;15.95;3.85;;;8.00;99.90;;;;;;5082269;28;20417;-68
2024/03/23 04:59:11;;;;;;;16.55;3.30;;;8.00;99.90;;;;;;5082057;28;20036;-68
2024/03/23 05:01:40;;;;;;;14.57;3.92;;;8.00;99.90;;;;;;5079722;28;20468;-68
2024/03/23 05:04:05;;;;;;;14.13;3.47;;;8.00;99.90;;;;;;5080816;28;20127;-67
2024/03/23 05:06:31;;;;;;;16.92;3.50;;;8.00;99.90;;;;;;5069799;28;20116;-68
2024/03/23 05:08:58;;;;;;;20.73;4.10;;;8.00;99.90;;;;;;5086562;28;20048;-68
2024/03/23 05:11:24;;;;;;;22.38;4.30;;;8.00;99.90;;;;;;5076653;28;20024;-69
2024/03/23 05:13:49;;;;;;;16.48;3.28;;;7.90;99.90;;;;;;5079320;28;20019;-68
2024/03/23 05:16:15;;;;;;;20.65;3.70;;;7.90;99.90;;;;;;5082274;28;20055;-65
2024/03/23 05:18:40;;;;;;;13.98;3.55;;;7.90;99.90;;;;;;5077564;28;20492;-65
2024/03/23 05:21:06;;;;;;;15.23;3.15;;;7.90;99.90;;;;;;5075948;28;20103;-65
2024/03/23 05:23:31;;;;;;;17.23;2.78;;;7.90;99.90;;;;;;5084912;28;20025;-65
2024/03/23 05:25:57;;;;;;;6.47;1.88;;;7.80;99.90;;;;;;5088557;28;20123;-65
2024/03/23 05:28:22;;;;;;;4.60;1.40;;;7.70;99.90;;;;;;5090832;28;20027;-65
2024/03/23 05:30:52;;;;;;;7.47;1.40;;;7.70;99.90;;;;;;5072849;28;20467;-65
2024/03/23 05:33:19;;;;;;;8.27;1.40;;;7.70;99.90;;;;;;5086054;28;20027;-64
2024/03/23 05:35:45;;;;;;;10.93;1.30;;;7.70;99.90;;;;;;5081604;28;20606;-65
2024/03/23 05:38:11;;;;;;;14.95;2.55;;;7.70;99.90;;;;;;5057372;28;20787;-65
2024/03/23 05:40:40;;;;;;;10.05;1.60;;;7.70;99.90;;;;;;5079184;28;20029;-64
2024/03/23 05:43:06;;;;;;;8.27;1.35;;;7.70;99.90;;;;;;5090028;28;20473;-65
2024/03/23 05:45:32;;;;;;;6.20;1.27;;;7.60;99.90;;;;;;5083713;28;20536;-64
2024/03/23 05:47:57;;;;;;;8.40;1.10;;;7.60;99.90;;;;;;5086524;28;20032;-64
2024/03/23 05:50:23;;;;;;;15.10;1.75;;;7.60;99.90;;;;;;5089849;28;20043;-65
2024/03/23 05:52:49;;;;;;;6.90;1.45;;;7.50;99.90;;;;;;5089353;28;20020;-65
2024/03/23 05:55:15;;;;;;;10.48;1.80;;;7.50;99.90;;;;;;5074281;28;20142;-65
2024/03/23 05:57:41;;;;;;;9.20;1.45;;;7.50;99.90;;;;;;5089859;28;20122;-65
2024/03/23 06:00:15;;;;;;;15.45;2.35;;;7.50;99.90;;;;;;5076474;28;20040;-65
2024/03/23 06:02:45;;;;;;;10.60;1.55;;;7.50;99.90;;;;;;5088262;28;20542;-64
2024/03/23 06:05:13;;;;;;;8.82;1.63;;;7.50;99.90;;;;;;5062744;28;20512;-65
2024/03/23 06:07:39;;;;;;;7.68;1.13;;;7.50;99.90;;;;;;5061767;28;20075;-65
2024/03/23 06:10:05;;;;;;;5.85;1.52;;;7.50;99.90;;;;;;5089768;28;20028;-65
2024/03/23 06:12:32;;;;;;;7.68;1.33;;;7.50;99.90;;;;;;5072007;28;20032;-65
2024/03/23 06:14:57;;;;;;;8.32;1.67;;;7.50;99.90;;;;;;5074746;28;20439;-65
2024/03/23 06:17:23;;;;;;;6.88;2.08;;;7.50;99.90;;;;;;5080197;28;20035;-65
2024/03/23 06:19:49;;;;;;;10.05;1.88;;;7.50;99.90;;;;;;5080976;28;20025;-65
2024/03/23 06:22:14;;;;;;;10.20;1.45;;;7.50;99.90;;;;;;5079760;28;20025;-64
2024/03/23 06:24:40;;;;;;;13.02;1.48;;;7.50;99.90;;;;;;5061118;28;20036;-65
2024/03/23 06:27:06;;;;;;;15.65;1.98;;;7.50;99.90;;;;;;5060554;28;20032;-65
2024/03/23 06:29:32;;;;;;;5.63;1.77;;;7.60;99.90;;;;;;5089876;28;20024;-65
2024/03/23 06:31:58;;;;;;;9.43;1.58;;;7.50;99.90;;;;;;5082212;28;20032;-65
2024/03/23 06:34:23;;;;;;;8.98;1.73;;;7.60;99.90;;;;;;5083074;28;20495;-64
2024/03/23 06:36:49;;;;;;;12.38;2.30;;;7.60;99.90;;;;;;5081988;28;20031;-64
2024/03/23 06:39:18;;;;;;;11.77;1.95;;;7.70;99.90;;;;;;5078326;28;20561;-65
2024/03/23 06:41:52;;;;;;;16.08;2.83;;;7.70;99.90;;;;;;5084042;28;20044;-65
2024/03/23 06:44:18;;;;;;;10.55;2.65;;;7.70;99.90;;;;;;5067755;28;20043;-65
2024/03/23 06:46:44;;;;;;;14.30;2.90;;;7.60;99.90;;;;;;5085920;28;20032;-64
2024/03/23 06:49:10;;;;;;;15.57;2.55;;;7.70;99.90;;;;;;5087985;28;20012;-64
2024/03/23 06:51:35;;;;;;;10.20;2.35;;;7.60;99.90;;;;;;5088508;28;20028;-65
2024/03/23 06:54:03;;;;;;;13.38;3.10;;;7.70;99.90;;;;;;5088680;28;20035;-64
2024/03/23 06:56:29;;;;;;;;;;;7.60;99.90;;;;;;5074002;28;20048;-64
2024/03/23 06:58:54;;;;;;;19.77;3.83;;;7.70;99.90;;;;;;5073333;28;19952;-65
2024/03/23 07:01:20;;;;;;;18.48;3.47;;;7.70;99.90;;;;;;5076046;28;20051;-64
2024/03/23 07:03:45;;;;;;;18.33;3.70;;;7.70;99.90;;;;;;5087616;28;20036;-65
2024/03/23 07:06:11;;;;;;;18.38;3.42;;;7.80;99.90;;;;;;5081917;28;20036;-65
2024/03/23 07:08:36;;;;;;;19.05;4.60;;;7.80;99.90;;;;;;5082130;28;20032;-65
2024/03/23 07:11:02;;;;;;;18.08;3.88;;;7.80;99.90;;;;;;5080006;28;20085;-65
2024/03/23 07:13:28;;;;;;;26.45;6.53;;;7.80;99.90;;;;;;5087583;28;20020;-65
2024/03/23 07:15:57;;;;;;;25.13;5.50;;;7.90;99.90;;;;;;5088312;28;20115;-65
2024/03/23 07:18:23;;;;;;;29.17;5.38;;;7.90;99.90;;;;;;5078754;28;20046;-65
2024/03/23 07:20:58;;;;;;;35.38;5.65;;;7.90;99.90;;;;;;5079580;28;20016;-65
2024/03/23 07:23:24;;;;;;;22.67;5.45;;;8.00;99.90;;;;;;5080853;28;20032;-64
2024/03/23 07:25:57;;;;;;;25.40;6.22;;;8.00;99.90;;;;;;5079853;28;20418;-65
2024/03/23 07:28:22;;;;;;;25.17;6.07;;;8.00;99.90;;;;;;5061986;28;20082;-65
2024/03/23 07:30:48;;;;;;;18.15;5.72;;;8.00;99.90;;;;;;5079520;28;20040;-65
2024/03/23 07:33:13;;;;;;;32.75;6.50;;;8.10;99.90;;;;;;5081820;28;20478;-65
2024/03/23 07:35:39;;;;;;;20.00;5.70;;;8.10;99.90;;;;;;5084549;28;20047;-65
2024/03/23 07:38:05;;;;;;;20.15;5.60;;;8.10;99.90;;;;;;5087484;28;20024;-65
2024/03/23 07:40:31;;;;;;;27.42;6.45;;;8.20;99.90;;;;;;5094539;28;20024;-64
2024/03/23 07:42:56;;;;;;;26.58;6.32;;;8.20;99.90;;;;;;5087215;28;20036;-65
2024/03/23 07:45:22;;;;;;;23.85;5.97;;;8.30;99.90;;;;;;5087244;28;20024;-65
2024/03/23 07:47:48;;;;;;;28.58;6.68;;;8.30;99.90;;;;;;5083935;28;20074;-64
2024/03/23 07:50:13;;;;;;;26.77;6.50;;;8.30;99.90;;;;;;5078557;28;20024;-64
2024/03/23 07:52:39;;;;;;;30.67;7.00;;;8.30;99.90;;;;;;5081344;28;20035;-65
2024/03/23 07:55:05;;;;;;;31.23;6.82;;;8.30;99.90;;;;;;5071796;28;20051;-65
2024/03/23 07:57:31;;;;;;;27.00;6.60;;;8.30;99.90;;;;;;5091208;28;20024;-65
2024/03/23 07:59:56;;;;;;;24.10;6.85;;;8.30;99.90;;;;;;5070166;28;20032;-65
2024/03/23 08:02:22;;;;;;;33.08;7.70;;;8.40;99.90;;;;;;5084019;28;20032;-64
2024/03/23 08:04:48;;;;;;;39.05;7.25;;;8.40;99.90;;;;;;5086933;28;20016;-65
2024/03/23 08:07:13;;;;;;;37.20;7.40;;;8.30;99.90;;;;;;5071952;28;20519;-65
2024/03/23 08:09:39;;;;;;;28.40;7.32;;;8.40;99.90;;;;;;5086508;28;20055;-65
2024/03/23 08:12:05;;;;;;;29.67;7.32;;;8.40;99.90;;;;;;5082599;28;20400;-65
2024/03/23 08:14:30;;;;;;;42.08;8.43;;;8.40;99.90;;;;;;5082120;28;20020;-65
2024/03/23 08:16:56;;;;;;;41.05;8.98;;;8.40;99.90;;;;;;5074258;28;20064;-65
2024/03/23 08:19:21;;;;;;;43.25;8.35;;;8.40;99.90;;;;;;5087252;28;20544;-65
2024/03/23 08:21:47;;;;;;;33.83;9.23;;;8.40;99.90;;;;;;5084197;28;20032;-64
2024/03/23 08:24:12;;;;;;;35.17;9.63;;;8.40;99.90;;;;;;5087261;28;20047;-65
2024/03/23 08:26:39;;;;;;;30.88;8.68;;;8.40;99.90;;;;;;5087063;28;20031;-65
2024/03/23 08:29:05;;;;;;;34.47;9.05;;;8.40;99.90;;;;;;5080999;28;20483;-65
2024/03/23 08:31:30;;;;;;;33.00;8.60;;;8.40;99.90;;;;;;5080847;28;20024;-65
2024/03/23 08:33:56;;;;;;;35.15;8.68;;;8.40;99.90;;;;;;5083156;28;20028;-65
2024/03/23 08:36:22;;;;;;;35.05;9.05;;;8.50;99.90;;;;;;5075181;28;20566;-64
2024/03/23 08:38:50;;;;;;;27.08;8.32;;;8.50;99.90;;;;;;5080205;28;20036;-65
2024/03/23 08:41:15;;;;;;;;;;;8.60;99.90;;;;;;5081530;28;20263;-64
2024/03/23 08:43:42;;;;;;;29.13;8.98;;;8.70;99.90;;;;;;5086332;28;20038;-65
2024/03/23 08:46:12;;;;;;;36.17;9.57;;;8.70;99.90;;;;;;5086814;28;20035;-65
2024/03/23 08:48:43;;;;;;;32.65;8.25;;;8.70;99.90;;;;;;5084591;28;20515;-65
2024/03/23 08:51:10;;;;;;;34.35;8.77;;;8.80;99.90;;;;;;5085806;28;20109;-65
2024/03/23 08:53:36;;;;;;;26.05;7.80;;;8.90;99.90;;;;;;5086610;28;20047;-65
2024/03/23 08:56:03;;;;;;;38.95;9.10;;;9.00;99.90;;;;;;5087894;28;20557;-65
2024/03/23 08:58:30;;;;;;;35.63;6.82;;;9.10;99.90;;;;;;5079314;28;20017;-65
2024/03/23 09:01:02;;;;;;;20.73;6.90;;;9.10;99.90;;;;;;5076682;28;20048;-65
2024/03/23 09:03:28;;;;;;;25.75;6.95;;;9.10;99.90;;;;;;5086040;28;20028;-65
2024/03/23 09:05:55;;;;;;;30.40;6.45;;;9.20;99.90;;;;;;5074733;28;20630;-65
2024/03/23 09:08:20;;;;;;;25.27;5.32;;;9.20;99.90;;;;;;5091290;28;20060;-65
2024/03/23 09:10:47;;;;;;;22.77;6.25;;;9.10;99.90;;;;;;5090506;28;20668;-65
2024/03/23 09:13:13;;;;;;;25.27;6.57;;;9.20;99.90;;;;;;5090992;28;20024;-65
2024/03/23 09:15:47;;;;;;;23.75;5.45;;;9.30;99.90;;;;;;5090175;28;20028;-65
2024/03/23 09:18:13;;;;;;;28.67;5.18;;;9.40;99.90;;;;;;5089899;28;20036;-65
2024/03/23 09:20:38;;;;;;;24.92;6.30;;;9.30;99.90;;;;;;5084033;28;20025;-65
2024/03/23 09:23:04;;;;;;;19.45;4.90;;;9.30;99.90;;;;;;5077758;28;20028;-65
2024/03/23 09:25:29;;;;;;;25.10;5.25;;;9.30;99.90;;;;;;5074453;28;20025;-65
2024/03/23 09:27:55;;;;;;;17.20;4.45;;;9.30;99.90;;;;;;5076669;28;20032;-65
2024/03/23 09:30:21;;;;;;;15.82;4.65;;;9.30;99.90;;;;;;5084291;28;20024;-65
2024/03/23 09:32:46;;;;;;;26.67;5.13;;;9.40;99.90;;;;;;5088147;28;20147;-65
2024/03/23 09:35:12;;;;;;;32.30;5.75;;;9.40;99.90;;;;;;5077666;28;20091;-65
2024/03/23 09:37:40;;;;;;;26.55;5.38;;;9.50;99.90;;;;;;5087881;28;20020;-65
2024/03/23 09:40:15;;;;;;;18.40;4.60;;;9.70;99.90;;;;;;5073724;28;20097;-67
2024/03/23 09:42:46;;;;;;;16.00;4.40;;;9.70;99.90;;;;;;5084293;28;20020;-65
2024/03/23 09:45:28;;;;;;;24.42;4.90;;;9.70;99.90;;;;;;5057115;28;20351;-65
2024/03/23 09:47:55;;;;;;;23.00;4.93;;;9.60;99.90;;;;;;5075464;28;20142;-65
2024/03/23 09:50:21;;;;;;;31.50;6.18;;;9.60;99.90;;;;;;5079597;28;20033;-64
2024/03/23 09:52:47;;;;;;;16.52;3.83;;;9.50;99.90;;;;;;5081809;28;20043;-65
2024/03/23 09:55:13;;;;;;;18.30;4.22;;;9.40;99.90;;;;;;5088229;28;20044;-65
2024/03/23 09:57:39;;;;;;;18.45;4.25;;;9.30;99.90;;;;;;5084427;28;20027;-65
2024/03/23 10:00:06;;;;;;;12.90;3.60;;;9.30;99.90;;;;;;5080911;28;20105;-65
2024/03/23 10:02:32;;;;;;;23.90;4.43;;;9.50;99.90;;;;;;5089371;28;20127;-65
2024/03/23 10:04:58;;;;;;;21.08;4.30;;;9.70;99.90;;;;;;5082311;28;20047;-65
2024/03/23 10:07:23;;;;;;;16.38;3.42;;;9.90;99.90;;;;;;5057477;28;20382;-65
2024/03/23 10:09:52;;;;;;;18.08;4.30;;;10.00;99.90;;;;;;5081755;28;20021;-65
2024/03/23 10:12:19;;;;;;;20.15;3.38;;;10.10;99.90;;;;;;5064759;28;20050;-65
2024/03/23 10:14:45;;;;;;;17.80;3.13;;;10.10;99.90;;;;;;5089342;28;20024;-65
2024/03/23 10:17:25;;;;;;;19.17;2.50;;;10.10;99.90;;;;;;5088281;28;20028;-65
2024/03/23 10:19:52;;;;;;;12.88;2.83;;;10.00;99.90;;;;;;5089094;28;20097;-65
2024/03/23 10:22:19;;;;;;;16.98;3.00;;;10.00;99.90;;;;;;5083422;28;20016;-65
2024/03/23 10:24:45;;;;;;;14.82;2.58;;;10.10;99.90;;;;;;5067355;28;20115;-65
2024/03/23 10:27:18;;;;;;;16.75;2.80;;;10.40;99.90;;;;;;5079208;28;20032;-65
2024/03/23 10:29:49;;;;;;;21.00;2.97;;;10.90;99.90;;;;;;5075581;28;20628;-66
2024/03/23 10:32:17;;;;;;;15.98;2.00;;;11.40;99.90;;;;;;5083619;28;20032;-66
2024/03/23 10:34:43;;;;;;;13.80;3.33;;;11.90;97.20;;;;;;5088304;28;20055;-66
2024/03/23 10:37:10;;;;;;;11.80;2.50;;;12.30;98.10;;;;;;5071513;28;20105;-65
2024/03/23 10:39:39;;;;;;;11.13;2.13;;;12.80;97.10;;;;;;5083432;28;20032;-65
2024/03/23 10:42:10;;;;;;;8.65;1.60;;;13.20;96.80;;;;;;5064862;28;20032;-65
2024/03/23 10:44:35;;;;;;;7.70;1.80;;;13.30;94.20;;;;;;5071134;28;20040;-65
2024/03/23 10:47:02;;;;;;;7.60;1.25;;;13.00;94.40;;;;;;5082069;28;20146;-65
2024/03/23 10:49:36;;;;;;;6.97;1.85;;;12.80;94.30;;;;;;5076669;28;20028;-65
2024/03/23 10:52:02;;;;;;;7.68;1.77;;;12.70;93.70;;;;;;5080227;28;20032;-65
2024/03/23 10:54:30;;;;;;;6.43;1.63;;;12.30;94.30;;;;;;5078657;28;20044;-65
2024/03/23 10:57:20;;;;;;;4.88;1.52;;;11.20;95.80;;;;;;5087690;28;20698;-65
2024/03/23 10:59:46;;;;;;;5.05;1.48;;;10.20;96.90;;;;;;5063686;28;20039;-65
2024/03/23 11:02:20;;;;;;;5.47;1.52;;;9.80;99.40;;;;;;5076183;28;20036;-65
2024/03/23 11:04:48;;;;;;;10.10;1.63;;;9.70;99.90;;;;;;5088257;28;20492;-65
2024/03/23 11:07:33;;;;;;;6.22;1.85;;;9.50;99.90;;;;;;5080892;28;20020;-66
2024/03/23 11:09:59;;;;;;;3.22;1.17;;;9.00;99.90;;;;;;5080284;28;20028;-65
2024/03/23 11:12:26;;;;;;;3.33;0.75;;;8.70;99.90;;;;;;5087945;28;20499;-65
2024/03/23 11:15:05;;;;;;;3.67;0.60;;;8.60;99.90;;;;;;5082036;28;20028;-65
2024/03/23 11:17:31;;;;;;;2.67;0.95;;;8.60;99.90;;;;;;5088055;28;20032;-65
2024/03/23 11:20:05;;;;;;;5.07;1.33;;;9.00;99.90;;;;;;5087701;28;20075;-66
2024/03/23 11:22:41;;;;;;;5.40;2.17;;;9.50;99.90;;;;;;5088441;28;20024;-66
2024/03/23 11:25:24;;;;;;;4.07;1.48;;;10.30;99.90;;;;;;5085937;28;20119;-65
2024/03/23 11:27:51;;;;;;;5.63;1.63;;;10.30;99.90;;;;;;5086454;28;20101;-66
2024/03/23 11:30:24;;;;;;;5.60;1.17;;;10.00;99.90;;;;;;5079403;28;20031;-66
2024/03/23 11:32:55;;;;;;;4.72;1.65;;;9.80;99.90;;;;;;5077233;28;20033;-65
2024/03/23 11:35:33;;;;;;;6.45;1.73;;;9.50;99.90;;;;;;5073049;28;20029;-65
2024/03/23 11:38:12;;;;;;;3.95;1.75;;;9.40;99.90;;;;;;5070881;28;20556;-65
2024/03/23 11:40:38;;;;;;;5.35;1.83;;;9.40;99.90;;;;;;5089262;28;20016;-66
2024/03/23 11:43:05;;;;;;;7.82;2.40;;;9.50;99.90;;;;;;5081717;28;20498;-66
2024/03/23 11:45:36;;;;;;;8.43;1.92;;;10.20;99.90;;;;;;5081117;28;20035;-66
2024/03/23 11:48:09;;;;;;;7.22;1.73;;;10.60;99.90;;;;;;5081061;28;20382;-65
2024/03/23 11:50:40;;;;;;;6.78;1.80;;;11.00;99.90;;;;;;5083916;28;20032;-65
2024/03/23 11:53:19;;;;;;;5.82;1.60;;;11.10;99.90;;;;;;5075117;28;20032;-66
2024/03/23 11:55:46;;;;;;;5.13;1.50;;;11.00;99.90;;;;;;5071009;28;20036;-66
2024/03/23 11:58:12;;;;;;;6.65;1.20;;;10.80;99.90;;;;;;5085686;28;20536;-65
2024/03/23 12:00:38;;;;;;;3.85;0.90;;;10.40;99.90;;;;;;5087515;28;20024;-66
2024/03/23 12:03:04;;;;;;;3.53;1.20;;;9.90;99.90;;;;;;5086851;28;20111;-65
2024/03/23 12:05:32;;;;;;;4.55;1.63;;;9.80;99.90;;;;;;5083266;28;20032;-65
2024/03/23 12:08:17;;;;;;;1.98;0.80;;;9.80;99.90;;;;;;5074964;28;20093;-66
2024/03/23 12:10:48;;;;;;;7.45;1.23;;;9.90;99.90;;;;;;5081061;28;20103;-65
2024/03/23 12:13:21;;;;;;;0.90;0.77;;;9.80;99.90;;;;;;5072277;28;20028;-65
2024/03/23 12:15:49;;;;;;;2.17;1.10;;;9.60;99.90;;;;;;5084093;28;20028;-66
2024/03/23 12:18:15;;;;;;;6.78;1.75;;;10.00;99.90;;;;;;5080389;28;20763;-66
2024/03/23 12:20:40;;;;;;;6.40;0.88;;;10.60;99.90;;;;;;5068339;28;20028;-66
2024/03/23 12:23:12;;;;;;;4.40;1.33;;;10.90;99.90;;;;;;5081150;28;20020;-66
2024/03/23 12:25:39;;;;;;;3.85;1.20;;;11.10;99.90;;;;;;5082748;28;20021;-66
2024/03/23 12:28:08;;;;;;;3.88;0.93;;;11.10;99.90;;;;;;5087214;28;20039;-65
2024/03/23 12:30:36;;;;;;;5.72;1.10;;;11.00;99.90;;;;;;5086364;28;20031;-66
2024/03/23 12:33:03;;;;;;;4.15;1.35;;;11.20;99.90;;;;;;5075455;28;20101;-66
2024/03/23 12:35:28;;;;;;;8.23;1.40;;;11.90;99.90;;;;;;5080767;28;20111;-66
2024/03/23 12:37:54;;;;;;;4.38;1.35;;;12.50;99.90;;;;;;5080405;28;20445;-66
2024/03/23 12:40:20;;;;;;;4.38;1.02;;;12.70;99.10;;;;;;5071210;28;20465;-66
2024/03/23 12:42:45;;;;;;;4.65;1.20;;;12.60;99.10;;;;;;5083713;28;20024;-66
2024/03/23 12:45:11;;;;;;;6.57;1.38;;;12.50;98.80;;;;;;5086427;28;20554;-66
2024/03/23 12:47:36;;;;;;;5.18;1.20;;;12.20;98.60;;;;;;5084550;28;20028;-65